Portada
METAR-TAF:

METAR-TAF

Aeroports :

Visakhapatnam, Índia

latitud: 17-43-16N, longitud: 83-13-28E, altitud: 6 m

Observació

L'informe es va fer fa 32 minuts, a les 02:30 UTC
Vent 8 kt del Oest/Sud-Oest
Temperatura 32°C
Humitat 71%
Pressió 1008 hPa
Visibilitat: 3500 m
calitja

METAR: VOVZ 200230Z 25008KT 3500 HZ NSC 32/26 Q1008 NOSIG

Hora: 08:32 (03:02 UTC)

Pronòstic

L'informe es va fer fa 1 hora i 2 minuts, a les 02:00 UTC
Pronòstic vàlid del 20 a les 03 UTC al 20 a les 12 UTC
Vent 10 kt del Oest/Sud-Oest
Visibilitat: 4000 m
Escasses núvols a una alçada de 1800 ft
boirina
Evolucionant progressivament
l' 20 a les 05 UTC al 20 a les 06 UTC
Visibilitat: 5000 m
calitja
Temporalment
l' 20 a les 08 UTC al 20 a les 12 UTC
Vent 10 kt del Sud-Oest amb ràfegues de 20 kt
Escasses núvols a una alçada de 1600 ft

TAF: VOVZ 200200Z 2003/2012 24010KT 4000 BR FEW018 BECMG 2005/2006 5000 HZ TEMPO 2008/2012 23010G20KT FEW016 FEW025TCU/CB

Observacions i pronòstics meteorològics de més de 4000 aeroports (METAR i TAF).

Les estacions disponibles són els punts grocs i vermells al mapa.

Posi el ratolí al punt desitjat per veure el nom de l'estació.

Feu clic per veure les observacions i els pronòstics meteorològics.

Per canviar el mapa: feu clic els botons verds amb una creu de color negre per apropar; al botó verd amb un guió per allunyar la imatge; o en les fletxes verdes per a mapes adjacents.


METAR-TAF: